Time;durP1;ratioP1;P1;durP2;ratioP2;P2;SDS_P1;SDS_P2;PMS_P1;PMS_P2;Temp;Humidity;BMP_temperature;BMP_pressure;BME280_temperature;BME280_humidity;BME280_pressure;Samples;Min_cycle;Max_cycle;Signal;HPM_P1;HPM_P2
2021/11/13 00:06:02;;;;;;;14.13;6.63;;;6.50;99.90;;;;;;25811538;23;20012;-61
2021/11/13 00:16:06;;;;;;;15.05;6.68;;;6.50;99.90;;;;;;25837245;23;20008;-61
2021/11/13 00:26:10;;;;;;;11.57;5.50;;;6.40;99.90;;;;;;25810767;23;20070;-61
2021/11/13 00:36:12;;;;;;;10.68;6.00;;;6.50;99.90;;;;;;25835675;23;20154;-60
2021/11/13 00:46:15;;;;;;;12.50;7.05;;;6.20;99.90;;;;;;25772646;23;20011;-61
2021/11/13 00:56:18;;;;;;;12.63;6.45;;;6.00;99.90;;;;;;25837268;23;20061;-61
2021/11/13 01:06:21;;;;;;;14.48;6.72;;;6.20;99.90;;;;;;25835555;23;20039;-61
2021/11/13 01:16:26;;;;;;;12.98;6.22;;;6.20;99.90;;;;;;25835494;23;20058;-61
2021/11/13 01:26:28;;;;;;;14.98;6.63;;;6.10;99.90;;;;;;25833884;23;20389;-60
2021/11/13 01:36:32;;;;;;;17.23;8.23;;;6.40;99.90;;;;;;25835263;23;20036;-61
2021/11/13 01:46:35;;;;;;;14.40;7.10;;;6.70;99.90;;;;;;25834741;23;20016;-61
2021/11/13 01:56:40;;;;;;;18.08;8.02;;;6.70;99.90;;;;;;25834211;23;20012;-61
2021/11/13 02:06:44;;;;;;;15.35;7.65;;;6.80;99.90;;;;;;25834957;23;20012;-61
2021/11/13 02:16:47;;;;;;;17.50;8.18;;;6.80;99.90;;;;;;25839569;22;20016;-59
2021/11/13 02:26:49;;;;;;;17.45;7.88;;;6.80;99.90;;;;;;25759228;23;20417;-61
2021/11/13 02:36:53;;;;;;;19.45;8.55;;;6.80;99.90;;;;;;25834660;23;20008;-61
2021/11/13 02:46:55;;;;;;;18.58;8.13;;;6.80;99.90;;;;;;25782538;23;20062;-62
2021/11/13 02:56:58;;;;;;;16.05;8.05;;;6.80;99.90;;;;;;25807542;23;20101;-61
2021/11/13 03:07:01;;;;;;;19.15;8.73;;;6.40;99.90;;;;;;25806825;23;20008;-61
2021/11/13 03:17:06;;;;;;;30.00;12.07;;;5.80;99.90;;;;;;25782194;23;20338;-59
2021/11/13 03:27:09;;;;;;;15.25;7.43;;;5.60;99.90;;;;;;25777592;23;1451040;-61
2021/11/13 03:37:14;;;;;;;21.52;7.65;;;5.60;99.90;;;;;;25789067;23;20008;-61
2021/11/13 03:47:16;;;;;;;29.25;12.55;;;5.60;99.90;;;;;;25838926;23;20012;-61
2021/11/13 03:57:19;;;;;;;26.60;11.50;;;5.80;99.90;;;;;;25838349;23;20077;-61
2021/11/13 04:07:21;;;;;;;28.13;11.90;;;6.10;99.90;;;;;;25787745;23;20012;-61
2021/11/13 04:17:24;;;;;;;24.48;9.95;;;6.50;99.90;;;;;;25837827;23;20107;-61
2021/11/13 04:27:26;;;;;;;45.00;12.98;;;6.70;99.90;;;;;;25812371;23;20012;-61
2021/11/13 04:37:31;;;;;;;37.10;13.27;;;6.60;99.90;;;;;;25835558;23;20379;-60
2021/11/13 04:47:34;;;;;;;33.92;13.02;;;6.60;99.90;;;;;;25786535;23;20012;-62
2021/11/13 04:57:36;;;;;;;540.33;34.63;;;6.70;99.90;;;;;;25835143;23;20035;-61
2021/11/13 05:07:42;;;;;;;209.00;20.00;;;6.70;99.90;;;;;;25810019;23;20070;-60
2021/11/13 05:17:46;;;;;;;129.40;14.57;;;6.80;99.90;;;;;;25834547;23;20008;-59
2021/11/13 05:27:51;;;;;;;33.30;12.20;;;6.80;99.90;;;;;;25783973;23;20020;-59
2021/11/13 05:37:55;;;;;;;32.92;11.90;;;6.80;99.90;;;;;;25834546;23;20114;-59
2021/11/13 05:47:57;;;;;;;32.30;12.35;;;6.70;99.90;;;;;;25837231;23;20043;-61
2021/11/13 05:58:00;;;;;;;378.55;29.85;;;6.60;99.90;;;;;;25841904;23;20404;-58
2021/11/13 06:08:03;;;;;;;693.92;44.13;;;6.70;99.90;;;;;;25842182;23;20046;-60
2021/11/13 06:18:06;;;;;;;174.77;19.65;;;6.70;99.90;;;;;;25842421;22;20019;-61
2021/11/13 06:28:09;;;;;;;284.73;23.92;;;6.70;99.90;;;;;;25840571;23;20024;-61
2021/11/13 06:38:12;;;;;;;236.90;21.50;;;6.80;99.90;;;;;;25817084;23;20012;-61
2021/11/13 06:48:14;;;;;;;157.18;20.67;;;6.90;99.90;;;;;;25840563;23;20030;-61
2021/11/13 06:58:18;;;;;;;550.20;35.70;;;6.90;99.90;;;;;;25840170;23;20414;-61
2021/11/13 07:08:20;;;;;;;369.70;28.17;;;7.10;99.90;;;;;;25840149;23;20008;-60
2021/11/13 07:18:23;;;;;;;283.88;24.85;;;7.10;99.90;;;;;;25788791;22;20016;-59
2021/11/13 07:28:39;;;;;;;50.50;15.48;;;7.50;99.90;;;;;;25841437;23;20078;-61
2021/11/13 07:38:42;;;;;;;556.20;45.47;;;7.40;99.90;;;;;;25791556;23;20083;-59
2021/11/13 07:48:46;;;;;;;289.58;24.98;;;7.40;99.90;;;;;;25788792;23;20031;-61
2021/11/13 07:58:49;;;;;;;360.02;28.63;;;7.40;99.90;;;;;;25788812;23;20016;-62
2021/11/13 08:08:52;;;;;;;38.67;15.10;;;7.70;99.90;;;;;;25812296;23;20020;-61
2021/11/13 08:18:54;;;;;;;251.70;26.73;;;8.00;99.90;;;;;;25837727;23;20024;-61
2021/11/13 08:28:57;;;;;;;389.45;35.90;;;8.40;99.90;;;;;;25810467;23;20397;-61
2021/11/13 08:39:00;;;;;;;32.95;14.50;;;8.90;99.90;;;;;;25836106;23;20442;-61
2021/11/13 08:49:05;;;;;;;136.90;19.42;;;9.80;99.90;;;;;;25836008;23;20070;-62
2021/11/13 08:59:08;;;;;;;92.72;15.60;;;10.00;99.90;;;;;;25838244;23;20008;-61
2021/11/13 09:09:11;;;;;;;227.38;19.77;;;9.90;99.90;;;;;;25842230;23;20303;-62
2021/11/13 09:19:14;;;;;;;53.88;16.80;;;9.60;99.90;;;;;;25839266;23;20437;-60
2021/11/13 09:29:17;;;;;;;85.50;14.52;;;9.60;99.90;;;;;;25835586;23;20028;-62
2021/11/13 09:39:20;;;;;;;29.67;13.35;;;9.60;99.90;;;;;;25782258;23;20015;-61
2021/11/13 09:49:25;;;;;;;32.53;13.07;;;10.00;99.90;;;;;;25833175;23;20008;-61
2021/11/13 09:59:28;;;;;;;28.02;12.50;;;10.00;99.90;;;;;;25783792;23;20066;-62
2021/11/13 10:09:30;;;;;;;33.45;14.02;;;9.70;99.90;;;;;;25834310;23;20504;-62
2021/11/13 10:19:33;;;;;;;34.88;12.30;;;9.50;99.90;;;;;;25835100;22;20077;-62
2021/11/13 10:29:37;;;;;;;42.42;13.38;;;9.40;99.90;;;;;;25809338;23;20516;-62
2021/11/13 10:39:44;;;;;;;36.08;13.45;;;9.40;99.90;;;;;;25845893;22;20008;-60
2021/11/13 10:49:51;;;;;;;81.45;15.27;;;9.10;99.90;;;;;;25797833;23;20086;-61
2021/11/13 10:59:55;;;;;;;128.88;17.13;;;9.10;99.90;;;;;;25797770;23;20041;-62
2021/11/13 11:10:01;;;;;;;150.90;18.00;;;9.20;99.90;;;;;;25850675;23;20461;-61
2021/11/13 11:20:13;;;;;;;203.40;22.30;;;9.20;99.90;;;;;;25802906;22;20507;-61
2021/11/13 11:30:19;;;;;;;32.95;15.65;;;9.00;99.90;;;;;;25831265;23;20020;-62
2021/11/13 11:40:25;;;;;;;31.27;15.10;;;9.30;99.90;;;;;;25838851;23;20012;-62
2021/11/13 11:50:31;;;;;;;28.65;15.35;;;9.60;99.90;;;;;;25837212;23;20441;-62
2021/11/13 12:00:37;;;;;;;28.80;14.52;;;10.20;99.90;;;;;;25837464;23;20452;-62
2021/11/13 12:10:40;;;;;;;34.08;14.23;;;10.40;99.90;;;;;;25786323;23;20512;-62
2021/11/13 12:20:43;;;;;;;30.98;14.98;;;10.40;99.90;;;;;;25835808;23;20028;-61
2021/11/13 12:30:55;;;;;;;27.35;13.13;;;10.20;99.90;;;;;;25786943;23;20008;-62
2021/11/13 12:41:35;;;;;;;33.20;13.38;;;10.40;99.90;;;;;;25835954;23;20106;-62
2021/11/13 12:51:50;;;;;;;25.80;12.70;;;10.30;99.90;;;;;;25306971;23;20026;-61
2021/11/13 13:01:59;;;;;;;22.70;12.32;;;10.30;99.90;;;;;;25307767;23;20109;-62
2021/11/13 13:12:04;;;;;;;20.00;8.88;;;10.40;99.90;;;;;;25305885;23;20448;-62
2021/11/13 13:22:09;;;;;;;12.90;6.78;;;10.50;99.90;;;;;;25520974;23;20023;-60
2021/11/13 13:32:16;;;;;;;25.17;12.70;;;10.20;99.90;;;;;;25846461;23;20388;-61
2021/11/13 13:42:20;;;;;;;27.25;13.05;;;9.90;99.90;;;;;;25851272;23;20293;-62
2021/11/13 13:52:32;;;;;;;27.75;14.23;;;9.50;99.90;;;;;;25863617;23;20014;-60
2021/11/13 14:02:40;;;;;;;27.10;13.45;;;9.20;99.90;;;;;;25853321;23;20012;-61
2021/11/13 14:12:58;;;;;;;30.23;12.52;;;9.00;99.90;;;;;;25812016;23;20054;-61
2021/11/13 14:23:19;;;;;;;39.15;14.02;;;8.90;99.90;;;;;;25870752;23;20020;-61
2021/11/13 14:33:24;;;;;;;68.28;15.88;;;8.60;99.90;;;;;;25818922;23;20333;-62
2021/11/13 14:43:30;;;;;;;203.63;22.25;;;8.40;99.90;;;;;;25839802;23;20012;-61
2021/11/13 14:53:32;;;;;;;364.20;29.52;;;8.20;99.90;;;;;;25817827;23;20034;-61
2021/11/13 15:03:36;;;;;;;199.27;22.08;;;8.10;99.90;;;;;;25871110;23;20408;-61
2021/11/13 15:13:43;;;;;;;183.63;20.48;;;8.00;99.90;;;;;;25812297;23;20061;-61
2021/11/13 15:23:47;;;;;;;229.70;23.70;;;7.90;99.90;;;;;;25855863;23;20054;-61
2021/11/13 15:33:54;;;;;;;311.83;26.80;;;7.80;99.90;;;;;;25813134;23;20087;-61
2021/11/13 15:44:00;;;;;;;392.40;30.50;;;7.70;99.90;;;;;;25831987;23;20315;-61
2021/11/13 15:54:10;;;;;;;525.25;38.50;;;7.60;99.90;;;;;;25855260;23;20077;-60
2021/11/13 16:04:14;;;;;;;211.90;22.30;;;7.60;99.90;;;;;;25799844;23;20013;-61
2021/11/13 16:14:19;;;;;;;645.95;52.65;;;7.50;99.90;;;;;;25852036;23;20327;-61
2021/11/13 16:24:22;;;;;;;747.17;55.55;;;7.50;99.90;;;;;;25801259;23;20077;-61
2021/11/13 16:34:25;;;;;;;1257.90;103.32;;;7.50;99.90;;;;;;25855239;23;20034;-62
2021/11/13 16:44:29;;;;;;;839.95;67.40;;;7.40;99.90;;;;;;25788325;23;20137;-61
2021/11/13 16:54:32;;;;;;;971.83;77.13;;;7.20;99.90;;;;;;25784177;23;20016;-62
2021/11/13 17:04:34;;;;;;;1009.72;72.57;;;7.10;99.90;;;;;;25835822;23;20078;-59
2021/11/13 17:14:37;;;;;;;1073.95;75.30;;;7.10;99.90;;;;;;25836920;23;20035;-60
2021/11/13 17:24:41;;;;;;;932.78;62.80;;;7.00;99.90;;;;;;25807904;23;20070;-60
2021/11/13 17:34:44;;;;;;;615.78;38.90;;;7.10;99.90;;;;;;25833003;23;20015;-58
2021/11/13 17:44:47;;;;;;;684.38;46.78;;;7.00;99.90;;;;;;25832446;23;20061;-59
2021/11/13 17:54:50;;;;;;;606.30;37.90;;;7.00;99.90;;;;;;25832546;23;20354;-61
2021/11/13 18:04:53;;;;;;;514.63;28.45;;;7.00;99.90;;;;;;25832597;23;20004;-58
2021/11/13 18:14:56;;;;;;;356.40;21.83;;;7.00;99.90;;;;;;25831926;23;20016;-56
2021/11/13 18:25:00;;;;;;;768.38;43.40;;;6.90;99.90;;;;;;25832021;23;20405;-54
2021/11/13 18:35:04;;;;;;;5.85;2.80;;;6.90;99.90;;;;;;25831453;23;20016;-54
2021/11/13 18:45:09;;;;;;;98.15;7.28;;;6.80;99.90;;;;;;25806429;23;20074;-55
2021/11/13 18:55:13;;;;;;;26.58;3.63;;;6.70;99.90;;;;;;25783738;23;20418;-56
2021/11/13 19:05:16;;;;;;;83.57;5.45;;;6.60;99.90;;;;;;25815148;23;20012;-55
2021/11/13 19:15:21;;;;;;;2.63;1.60;;;6.60;99.90;;;;;;25839776;23;20012;-56
2021/11/13 19:25:25;;;;;;;2.78;1.10;;;6.50;99.90;;;;;;25788098;23;20071;-54
2021/11/13 19:35:28;;;;;;;4.60;0.70;;;6.30;99.90;;;;;;25837552;23;20012;-54
2021/11/13 19:45:31;;;;;;;1.02;0.43;;;6.10;99.90;;;;;;25837076;23;20012;-54
2021/11/13 19:55:34;;;;;;;54.20;2.97;;;6.10;99.90;;;;;;25837060;23;20446;-58
2021/11/13 20:05:38;;;;;;;176.52;11.70;;;6.10;99.90;;;;;;25837236;23;20011;-56
2021/11/13 20:15:41;;;;;;;1.08;0.47;;;6.20;99.90;;;;;;25835491;23;20008;-54
2021/11/13 20:25:44;;;;;;;3.22;0.22;;;6.20;99.90;;;;;;25834585;23;20012;-54
2021/11/13 20:35:49;;;;;;;0.17;0.10;;;5.90;99.90;;;;;;25834762;23;20115;-53
2021/11/13 20:45:54;;;;;;;5.18;0.08;;;5.20;99.90;;;;;;25835752;23;20008;-57
2021/11/13 20:55:58;;;;;;;0.43;0.00;;;4.70;99.90;;;;;;25808871;23;20005;-57
2021/11/13 21:06:01;;;;;;;1.40;0.15;;;4.60;99.90;;;;;;25783562;23;20008;-53
2021/11/13 21:16:04;;;;;;;0.13;0.05;;;4.50;99.90;;;;;;25832829;23;20008;-56
2021/11/13 21:26:07;;;;;;;0.00;0.00;;;4.50;99.90;;;;;;25832482;23;20017;-54
2021/11/13 21:36:10;;;;;;;0.30;0.00;;;4.40;99.90;;;;;;25832742;23;20078;-55
2021/11/13 21:46:15;;;;;;;0.20;0.00;;;4.40;99.90;;;;;;25832198;23;20500;-55
2021/11/13 21:56:20;;;;;;;0.10;0.03;;;4.30;99.90;;;;;;25832550;23;20442;-53
2021/11/13 22:06:24;;;;;;;1.42;0.10;;;4.40;99.90;;;;;;25782462;23;20066;-56
2021/11/13 22:16:26;;;;;;;0.38;0.10;;;4.40;99.90;;;;;;25831842;22;20094;-57
2021/11/13 22:26:29;;;;;;;0.43;0.10;;;4.40;99.90;;;;;;25831248;23;20028;-56
2021/11/13 22:36:31;;;;;;;0.43;0.05;;;4.40;99.90;;;;;;25838303;23;20083;-54
2021/11/13 22:46:35;;;;;;;1.42;0.20;;;4.50;99.90;;;;;;25837236;23;20012;-53
2021/11/13 22:56:38;;;;;;;0.68;0.30;;;4.50;99.90;;;;;;25837493;23;20094;-53
2021/11/13 23:06:41;;;;;;;0.85;0.20;;;4.50;99.90;;;;;;25837849;23;20012;-57
2021/11/13 23:16:46;;;;;;;0.08;0.03;;;4.60;99.90;;;;;;25814012;23;20062;-55
2021/11/13 23:26:50;;;;;;;0.10;0.10;;;4.60;99.90;;;;;;25836468;23;20043;-54
2021/11/13 23:36:53;;;;;;;0.75;0.00;;;4.60;99.90;;;;;;25836603;23;20338;-55
2021/11/13 23:47:00;;;;;;;0.00;0.00;;;4.60;99.90;;;;;;25835354;23;20082;-57
2021/11/13 23:57:04;;;;;;;0.00;0.00;;;4.70;99.90;;;;;;25834995;23;20008;-57
